createdAt,value
2022-07-31T00:01:42.999Z,8.83
2022-07-31T00:04:45.887Z,8.85
2022-07-31T00:07:48.869Z,8.95
2022-07-31T00:10:52.073Z,9.90
2022-07-31T00:13:57.821Z,8.50
2022-07-31T00:17:01.891Z,8.83
2022-07-31T00:20:05.760Z,8.98
2022-07-31T00:23:09.160Z,8.57
2022-07-31T00:26:13.991Z,8.85
2022-07-31T00:29:16.988Z,9.20
2022-07-31T00:32:25.413Z,7.93
2022-07-31T00:35:28.603Z,8.90
2022-07-31T00:38:31.450Z,8.82
2022-07-31T00:41:40.697Z,8.00
2022-07-31T00:44:43.015Z,8.03
2022-07-31T00:47:50.487Z,7.40
2022-07-31T00:50:58.348Z,9.70
2022-07-31T00:54:00.582Z,7.32
2022-07-31T00:57:03.688Z,6.05
2022-07-31T01:00:07.542Z,6.33
2022-07-31T01:03:10.022Z,5.87
2022-07-31T01:06:13.440Z,5.00
2022-07-31T01:09:17.011Z,5.03
2022-07-31T01:12:26.874Z,4.88
2022-07-31T01:15:29.716Z,4.90
2022-07-31T01:18:35.460Z,5.27
2022-07-31T01:21:43.604Z,7.07
2022-07-31T01:25:17.774Z,5.25
2022-07-31T01:28:58.121Z,5.15
2022-07-31T01:32:10.944Z,5.20
2022-07-31T01:35:26.865Z,5.43
2022-07-31T01:38:35.634Z,5.57
2022-07-31T01:41:43.609Z,5.90
2022-07-31T01:44:48.411Z,4.47
2022-07-31T01:47:52.018Z,5.93
2022-07-31T01:50:56.189Z,4.70
2022-07-31T01:54:00.685Z,4.88
2022-07-31T01:57:04.480Z,5.15
2022-07-31T02:00:33.609Z,5.15
2022-07-31T02:03:42.940Z,5.33
2022-07-31T02:06:50.379Z,4.13
2022-07-31T02:09:58.495Z,4.45
2022-07-31T02:13:07.010Z,4.10
2022-07-31T02:16:11.198Z,4.60
2022-07-31T02:19:15.049Z,10.07
2022-07-31T02:22:17.642Z,3.77
2022-07-31T02:25:20.310Z,6.00
2022-07-31T02:28:23.090Z,3.97
2022-07-31T02:31:26.051Z,4.65
2022-07-31T02:34:29.882Z,3.80
2022-07-31T02:37:36.807Z,4.20
2022-07-31T02:40:40.019Z,4.60
2022-07-31T02:43:45.433Z,4.00
2022-07-31T02:46:56.039Z,4.35
2022-07-31T02:49:58.629Z,4.60
2022-07-31T02:53:01.199Z,4.63
2022-07-31T02:56:04.943Z,3.90
2022-07-31T02:59:11.979Z,3.67
2022-07-31T03:02:36.950Z,4.00
2022-07-31T03:05:40.993Z,3.30
2022-07-31T03:08:43.389Z,3.90
2022-07-31T03:11:48.799Z,3.60
2022-07-31T03:14:52.819Z,3.55
2022-07-31T03:17:55.282Z,3.45
2022-07-31T03:21:12.011Z,4.63
2022-07-31T03:24:14.485Z,4.37
2022-07-31T03:27:17.040Z,4.47
2022-07-31T03:30:24.966Z,4.18
2022-07-31T03:33:30.046Z,4.80
2022-07-31T03:36:32.433Z,3.60
2022-07-31T03:39:35.161Z,3.63
2022-07-31T03:42:41.277Z,4.30
2022-07-31T03:45:43.986Z,4.10
2022-07-31T03:48:46.892Z,3.92
2022-07-31T03:51:49.572Z,3.30
2022-07-31T03:54:52.784Z,3.70
2022-07-31T03:57:57.586Z,4.80
2022-07-31T04:00:59.866Z,3.97
2022-07-31T04:04:03.357Z,3.22
2022-07-31T04:07:26.269Z,3.90
2022-07-31T04:10:28.634Z,5.63
2022-07-31T04:13:31.314Z,4.30
2022-07-31T04:16:33.695Z,3.90
2022-07-31T04:19:36.251Z,4.93
2022-07-31T04:22:38.720Z,3.83
2022-07-31T04:25:47.800Z,4.47
2022-07-31T04:29:11.333Z,4.20
2022-07-31T04:32:13.798Z,4.88
2022-07-31T04:35:22.423Z,4.40
2022-07-31T04:38:24.679Z,4.47
2022-07-31T04:41:27.764Z,5.07
2022-07-31T04:44:31.718Z,4.50
2022-07-31T04:47:34.936Z,4.32
2022-07-31T04:50:38.414Z,4.40
2022-07-31T04:53:42.020Z,4.30
2022-07-31T04:56:46.036Z,4.50
2022-07-31T04:59:59.830Z,4.05
2022-07-31T05:03:04.614Z,3.47
2022-07-31T05:06:11.435Z,3.70
2022-07-31T05:09:19.247Z,3.27
2022-07-31T05:12:22.949Z,3.83
2022-07-31T05:15:25.298Z,3.67
2022-07-31T05:18:28.545Z,4.38
2022-07-31T05:21:54.115Z,4.90
2022-07-31T05:25:18.771Z,4.23
2022-07-31T05:28:29.679Z,4.40
2022-07-31T05:31:32.917Z,4.50
2022-07-31T05:34:35.223Z,5.07
2022-07-31T05:37:37.575Z,4.95
2022-07-31T05:40:43.419Z,4.30
2022-07-31T05:44:13.722Z,4.63
2022-07-31T05:47:19.414Z,5.25
2022-07-31T05:50:22.221Z,5.13
2022-07-31T05:53:24.871Z,4.03
2022-07-31T05:56:39.078Z,5.07
2022-07-31T05:59:42.392Z,5.30
2022-07-31T06:02:45.463Z,5.25
2022-07-31T06:06:20.111Z,5.93
2022-07-31T06:09:22.362Z,7.13
2022-07-31T06:12:26.259Z,5.13
2022-07-31T06:15:32.007Z,4.93
2022-07-31T06:18:37.502Z,4.30
2022-07-31T06:21:39.899Z,5.88
2022-07-31T06:24:43.593Z,6.32
2022-07-31T06:27:49.906Z,4.87
2022-07-31T06:30:59.038Z,4.50
2022-07-31T06:34:02.157Z,4.50
2022-07-31T06:37:17.538Z,4.90
2022-07-31T06:40:20.439Z,5.18
2022-07-31T06:43:41.285Z,4.67
2022-07-31T06:47:19.771Z,5.50
2022-07-31T06:51:27.806Z,5.68
2022-07-31T06:54:26.882Z,5.05
2022-07-31T06:57:30.442Z,4.97
2022-07-31T07:00:32.950Z,4.50
2022-07-31T07:03:35.195Z,4.53
2022-07-31T07:06:38.314Z,3.97
2022-07-31T07:09:42.126Z,4.07
2022-07-31T07:12:46.674Z,4.97
2022-07-31T07:15:50.911Z,4.93
2022-07-31T07:18:56.229Z,4.40
2022-07-31T07:21:59.005Z,3.70
2022-07-31T07:25:01.371Z,4.07
2022-07-31T07:28:04.276Z,4.38
2022-07-31T07:31:06.982Z,3.93
2022-07-31T07:34:10.007Z,4.00
2022-07-31T07:37:12.651Z,3.88
2022-07-31T07:40:16.961Z,3.83
2022-07-31T07:43:19.691Z,3.50
2022-07-31T07:46:23.566Z,4.57
2022-07-31T07:49:29.309Z,4.50
2022-07-31T07:52:50.208Z,3.72
2022-07-31T07:56:10.843Z,3.38
2022-07-31T07:59:33.361Z,3.80
2022-07-31T08:03:02.781Z,3.83
2022-07-31T08:06:21.762Z,3.70
2022-07-31T08:09:24.697Z,4.35
2022-07-31T08:12:46.193Z,3.53
2022-07-31T08:15:51.686Z,3.63
2022-07-31T08:19:03.659Z,3.50
2022-07-31T08:22:07.225Z,3.80
2022-07-31T08:25:15.096Z,3.13
2022-07-31T08:28:24.189Z,3.42
2022-07-31T08:31:27.070Z,4.75
2022-07-31T08:34:54.977Z,3.77
2022-07-31T08:38:01.984Z,3.63
2022-07-31T08:41:09.414Z,3.20
2022-07-31T08:44:11.755Z,3.13
2022-07-31T08:47:15.921Z,3.20
2022-07-31T08:50:18.989Z,3.13
2022-07-31T08:53:22.776Z,3.47
2022-07-31T08:56:35.601Z,2.95
2022-07-31T08:59:41.651Z,3.97
2022-07-31T09:02:45.396Z,2.58
2022-07-31T09:06:00.010Z,2.70
2022-07-31T09:09:02.581Z,2.83
2022-07-31T09:12:05.489Z,3.15
2022-07-31T09:15:34.469Z,2.60
2022-07-31T09:18:40.253Z,2.50
2022-07-31T09:21:45.732Z,2.80
2022-07-31T09:24:48.701Z,2.70
2022-07-31T09:28:02.493Z,2.72
2022-07-31T09:31:06.975Z,3.05
2022-07-31T09:34:26.094Z,3.13
2022-07-31T09:37:48.600Z,2.43
2022-07-31T09:41:56.689Z,2.10
2022-07-31T09:45:01.103Z,2.97
2022-07-31T09:48:15.185Z,3.05
2022-07-31T09:51:23.569Z,3.08
2022-07-31T09:54:27.653Z,2.40
2022-07-31T09:57:37.732Z,2.60
2022-07-31T10:00:42.456Z,2.88
2022-07-31T10:03:47.653Z,2.70
2022-07-31T10:06:51.493Z,3.35
2022-07-31T10:09:57.019Z,2.33
2022-07-31T10:13:15.571Z,2.10
2022-07-31T10:16:18.095Z,2.90
2022-07-31T10:19:42.671Z,2.80
2022-07-31T10:23:10.068Z,2.70
2022-07-31T10:26:12.856Z,2.53
2022-07-31T10:29:18.545Z,2.50
2022-07-31T10:32:22.046Z,3.35
2022-07-31T10:36:01.694Z,5.75
2022-07-31T10:39:36.470Z,3.30
2022-07-31T10:43:01.872Z,3.33
2022-07-31T10:46:05.879Z,2.60
2022-07-31T10:49:18.848Z,2.53
2022-07-31T10:53:08.184Z,3.28
2022-07-31T10:56:41.311Z,2.67
2022-07-31T10:59:56.820Z,3.80
2022-07-31T11:03:25.446Z,2.70
2022-07-31T11:06:48.661Z,3.03
2022-07-31T11:10:18.783Z,3.88
2022-07-31T11:13:52.527Z,3.30
2022-07-31T11:17:16.092Z,2.90
2022-07-31T11:20:29.811Z,3.47
2022-07-31T11:23:33.723Z,3.67
2022-07-31T11:26:41.555Z,3.88
2022-07-31T11:30:01.876Z,4.65
2022-07-31T11:33:06.254Z,4.27
2022-07-31T11:36:12.330Z,4.27
2022-07-31T11:39:14.663Z,3.30
2022-07-31T11:42:19.353Z,3.20
2022-07-31T11:45:28.907Z,3.63
2022-07-31T11:48:43.452Z,3.53
2022-07-31T11:51:48.019Z,3.37
2022-07-31T11:54:50.475Z,4.30
2022-07-31T11:57:52.981Z,4.00
2022-07-31T12:00:58.414Z,3.95
2022-07-31T12:04:08.751Z,4.30
2022-07-31T12:07:11.597Z,3.47
2022-07-31T12:10:14.286Z,3.83
2022-07-31T12:13:19.146Z,4.13
2022-07-31T12:16:21.481Z,4.28
2022-07-31T12:19:29.220Z,4.37
2022-07-31T12:22:32.682Z,5.00
2022-07-31T12:25:43.604Z,3.75
2022-07-31T12:29:06.932Z,4.00
2022-07-31T12:32:10.533Z,4.07
2022-07-31T12:35:13.030Z,4.90
2022-07-31T12:38:38.169Z,5.23
2022-07-31T12:41:44.871Z,5.28
2022-07-31T12:44:51.439Z,3.83
2022-07-31T12:47:54.194Z,4.70
2022-07-31T12:50:56.799Z,4.10
2022-07-31T12:53:59.998Z,4.60
2022-07-31T12:57:03.990Z,4.80
2022-07-31T13:00:07.150Z,4.13
2022-07-31T13:03:09.397Z,4.43
2022-07-31T13:06:11.626Z,3.97
2022-07-31T13:09:13.921Z,3.63
2022-07-31T13:12:16.347Z,4.03
2022-07-31T13:15:21.080Z,3.83
2022-07-31T13:18:26.218Z,3.75
2022-07-31T13:21:29.415Z,3.63
2022-07-31T13:24:51.857Z,4.80
2022-07-31T13:27:55.980Z,3.78
2022-07-31T13:30:59.448Z,4.53
2022-07-31T13:34:01.989Z,3.28
2022-07-31T13:37:05.228Z,3.87
2022-07-31T13:40:08.791Z,4.57
2022-07-31T13:43:13.211Z,3.20
2022-07-31T13:46:15.775Z,3.28
2022-07-31T13:49:18.185Z,3.25
2022-07-31T13:52:20.625Z,4.23
2022-07-31T13:55:22.920Z,3.97
2022-07-31T13:58:29.318Z,4.00
2022-07-31T14:02:04.241Z,3.70
2022-07-31T14:04:55.137Z,3.33
2022-07-31T14:08:00.339Z,3.80
2022-07-31T14:11:19.940Z,4.03
2022-07-31T14:14:23.552Z,4.30
2022-07-31T14:17:26.439Z,4.85
2022-07-31T14:20:29.784Z,3.25
2022-07-31T14:23:35.235Z,4.57
2022-07-31T14:26:38.591Z,4.60
2022-07-31T14:29:44.033Z,4.40
2022-07-31T14:32:47.554Z,4.85
2022-07-31T14:35:54.478Z,5.28
2022-07-31T14:38:58.200Z,5.27
2022-07-31T14:42:00.633Z,5.40
2022-07-31T14:45:03.495Z,4.57
2022-07-31T14:48:06.778Z,4.40
2022-07-31T14:51:09.068Z,4.82
2022-07-31T14:54:11.408Z,5.10
2022-07-31T14:57:22.133Z,4.23
2022-07-31T15:00:26.453Z,3.90
2022-07-31T15:03:29.648Z,4.15
2022-07-31T15:06:55.543Z,4.43
2022-07-31T15:09:57.135Z,5.07
2022-07-31T15:13:00.640Z,3.73
2022-07-31T15:16:03.022Z,3.92
2022-07-31T15:19:05.932Z,4.10
2022-07-31T15:22:16.357Z,4.90
2022-07-31T15:25:19.776Z,3.93
2022-07-31T15:28:22.050Z,6.07
2022-07-31T15:31:24.926Z,4.72
2022-07-31T15:34:27.721Z,5.28
2022-07-31T15:37:30.484Z,5.43
2022-07-31T15:40:32.835Z,4.17
2022-07-31T15:43:38.397Z,4.77
2022-07-31T15:46:43.710Z,4.53
2022-07-31T15:49:46.350Z,4.32
2022-07-31T15:52:49.781Z,3.70
2022-07-31T15:55:52.164Z,4.47
2022-07-31T15:58:54.733Z,5.90
2022-07-31T16:01:56.985Z,4.25
2022-07-31T16:05:05.028Z,5.03
2022-07-31T16:08:29.509Z,4.07
2022-07-31T16:12:03.810Z,4.40
2022-07-31T16:15:01.707Z,5.77
2022-07-31T16:18:05.621Z,5.43
2022-07-31T16:21:09.030Z,4.13
2022-07-31T16:24:20.329Z,5.22
2022-07-31T16:27:23.002Z,5.10
2022-07-31T16:30:27.353Z,4.97
2022-07-31T16:33:30.345Z,5.65
2022-07-31T16:36:32.766Z,4.95
2022-07-31T16:39:35.078Z,4.15
2022-07-31T16:42:37.455Z,3.80
2022-07-31T16:45:42.939Z,4.97
2022-07-31T16:48:45.376Z,4.53
2022-07-31T16:51:47.844Z,4.78
2022-07-31T16:54:50.176Z,4.38
2022-07-31T16:57:52.562Z,4.60
2022-07-31T17:00:55.009Z,4.07
2022-07-31T17:04:00.923Z,4.70
2022-07-31T17:07:05.924Z,6.22
2022-07-31T17:10:09.002Z,4.18
2022-07-31T17:13:11.301Z,5.20
2022-07-31T17:16:13.576Z,4.23
2022-07-31T17:19:41.085Z,5.30
2022-07-31T17:22:42.938Z,4.63
2022-07-31T17:25:45.939Z,5.55
2022-07-31T17:28:51.754Z,4.00
2022-07-31T17:31:54.025Z,4.07
2022-07-31T17:34:56.427Z,5.80
2022-07-31T17:38:01.232Z,5.00
2022-07-31T17:41:07.919Z,5.30
2022-07-31T17:44:27.446Z,4.23
2022-07-31T17:47:30.498Z,4.50
2022-07-31T17:50:33.779Z,4.20
2022-07-31T17:53:54.710Z,4.63
2022-07-31T17:56:58.674Z,4.13
2022-07-31T18:00:01.376Z,4.73
2022-07-31T18:03:03.899Z,4.60
2022-07-31T18:06:06.176Z,5.22
2022-07-31T18:09:08.456Z,4.10
2022-07-31T18:12:15.407Z,4.55
2022-07-31T18:15:19.116Z,4.40
2022-07-31T18:18:21.932Z,4.50
2022-07-31T18:21:24.274Z,4.97
2022-07-31T18:24:26.858Z,5.35
2022-07-31T18:27:29.376Z,5.75
2022-07-31T18:30:34.801Z,4.50
2022-07-31T18:33:43.815Z,4.90
2022-07-31T18:36:47.416Z,4.45
2022-07-31T18:39:51.919Z,4.88
2022-07-31T18:42:54.278Z,4.63
2022-07-31T18:45:57.282Z,5.87
2022-07-31T18:49:00.567Z,4.97
2022-07-31T18:52:03.340Z,5.90
2022-07-31T18:55:06.432Z,4.57
2022-07-31T18:58:08.833Z,5.78
2022-07-31T19:01:11.146Z,5.20
2022-07-31T19:04:13.800Z,5.37
2022-07-31T19:07:23.288Z,5.38
2022-07-31T19:10:32.423Z,5.47
2022-07-31T19:13:40.208Z,5.55
2022-07-31T19:16:45.399Z,5.13
2022-07-31T19:19:54.811Z,4.90
2022-07-31T19:23:01.149Z,4.85
2022-07-31T19:26:04.800Z,5.10
2022-07-31T19:29:07.256Z,6.13
2022-07-31T19:32:09.761Z,5.00
2022-07-31T19:35:12.134Z,5.27
2022-07-31T19:38:14.461Z,5.70
2022-07-31T19:41:16.834Z,5.18
2022-07-31T19:44:19.163Z,4.45
2022-07-31T19:47:21.600Z,4.67
2022-07-31T19:50:24.279Z,5.17
2022-07-31T19:53:26.659Z,4.97
2022-07-31T19:56:29.539Z,4.40
2022-07-31T19:59:32.142Z,4.75
2022-07-31T20:02:34.913Z,5.30
2022-07-31T20:05:37.514Z,5.57
2022-07-31T20:08:40.015Z,6.50
2022-07-31T20:11:42.392Z,4.70
2022-07-31T20:14:44.787Z,4.78
2022-07-31T20:17:50.007Z,5.27
2022-07-31T20:20:56.927Z,4.87
2022-07-31T20:24:01.496Z,5.38
2022-07-31T20:27:04.973Z,4.38
2022-07-31T20:30:07.884Z,4.40
2022-07-31T20:33:11.399Z,4.93
2022-07-31T20:36:15.426Z,4.53
2022-07-31T20:39:17.936Z,5.55
2022-07-31T20:42:20.488Z,5.00
2022-07-31T20:45:24.272Z,4.13
2022-07-31T20:48:32.592Z,5.73
2022-07-31T20:51:35.737Z,5.20
2022-07-31T20:54:38.261Z,4.55
2022-07-31T20:57:40.989Z,4.05
2022-07-31T21:00:43.915Z,5.45
2022-07-31T21:03:46.775Z,5.80
2022-07-31T21:06:49.405Z,5.90
2022-07-31T21:09:51.722Z,4.78
2022-07-31T21:12:54.085Z,4.45
2022-07-31T21:15:56.792Z,4.70
2022-07-31T21:18:59.121Z,6.13
2022-07-31T21:22:04.612Z,3.90
2022-07-31T21:25:08.781Z,4.68
2022-07-31T21:28:11.746Z,3.95
2022-07-31T21:31:14.468Z,4.25
2022-07-31T21:34:17.020Z,5.20
2022-07-31T21:37:19.575Z,3.80
2022-07-31T21:40:25.822Z,3.55
2022-07-31T21:43:39.109Z,4.50
2022-07-31T21:46:55.436Z,3.70
2022-07-31T21:49:59.234Z,4.90
2022-07-31T21:53:01.546Z,4.07
2022-07-31T21:56:04.199Z,4.53
2022-07-31T21:59:06.402Z,4.63
2022-07-31T22:02:08.928Z,6.97
2022-07-31T22:05:30.410Z,3.53
2022-07-31T22:08:32.679Z,3.93
2022-07-31T22:11:35.880Z,3.67
2022-07-31T22:14:38.184Z,4.13
2022-07-31T22:17:40.861Z,3.55
2022-07-31T22:20:43.442Z,4.83
2022-07-31T22:23:46.137Z,4.33
2022-07-31T22:27:08.869Z,5.70
2022-07-31T22:30:12.846Z,5.82
2022-07-31T22:33:15.279Z,4.63
2022-07-31T22:36:21.014Z,4.37
2022-07-31T22:39:23.712Z,5.40
2022-07-31T22:42:27.854Z,5.32
2022-07-31T22:45:30.217Z,4.10
2022-07-31T22:48:33.253Z,4.97
2022-07-31T22:51:38.418Z,5.07
2022-07-31T22:54:42.786Z,5.83
2022-07-31T22:57:45.281Z,6.78
2022-07-31T23:00:48.286Z,5.25
2022-07-31T23:03:52.656Z,4.80
2022-07-31T23:06:56.388Z,6.10
2022-07-31T23:09:58.811Z,4.97
2022-07-31T23:13:01.120Z,5.25
2022-07-31T23:16:03.497Z,4.57
2022-07-31T23:19:06.542Z,4.28
2022-07-31T23:22:09.645Z,4.83
2022-07-31T23:25:14.339Z,5.10
2022-07-31T23:28:16.613Z,4.90
2022-07-31T23:31:19.486Z,5.07
2022-07-31T23:34:21.713Z,3.95
2022-07-31T23:37:24.793Z,3.93
2022-07-31T23:40:27.892Z,4.73
2022-07-31T23:43:30.778Z,4.32
2022-07-31T23:46:33.561Z,3.83
2022-07-31T23:49:36.718Z,3.83
2022-07-31T23:52:39.286Z,4.00
2022-07-31T23:55:42.841Z,3.70
2022-07-31T23:58:45.332Z,3.80
